createdAt,value
2018-05-15T00:00:11.953Z,76.18
2018-05-15T00:02:40.210Z,67.37
2018-05-15T00:05:07.756Z,75.25
2018-05-15T00:07:36.713Z,69.15
2018-05-15T00:10:04.203Z,80.18
2018-05-15T00:12:31.668Z,73.62
2018-05-15T00:14:59.145Z,71.85
2018-05-15T00:17:27.386Z,69.57
2018-05-15T00:19:54.874Z,83.18
2018-05-15T00:22:23.131Z,73.53
2018-05-15T00:24:50.614Z,64.87
2018-05-15T00:27:18.849Z,72.65
2018-05-15T00:29:46.422Z,76.97
2018-05-15T00:32:13.989Z,73.40
2018-05-15T00:34:41.467Z,78.50
2018-05-15T00:37:09.699Z,86.47
2018-05-15T00:39:37.183Z,85.40
2018-05-15T00:42:04.647Z,90.35
2018-05-15T00:44:32.141Z,98.45
2018-05-15T00:47:00.365Z,104.45
2018-05-15T00:49:27.843Z,101.55
2018-05-15T00:51:55.333Z,100.62
2018-05-15T00:54:22.817Z,109.07
2018-05-15T00:56:50.316Z,104.87
2018-05-15T00:59:17.791Z,106.90
2018-05-15T01:01:46.050Z,108.45
2018-05-15T01:04:13.539Z,126.43
2018-05-15T01:06:41.796Z,122.13
2018-05-15T01:09:09.275Z,113.70
2018-05-15T01:11:36.762Z,108.47
2018-05-15T01:14:04.324Z,146.65
2018-05-15T01:16:31.793Z,133.07
2018-05-15T01:18:59.280Z,137.90
2018-05-15T01:21:26.754Z,128.38
2018-05-15T01:23:55.037Z,163.45
2018-05-15T01:26:23.266Z,147.13
2018-05-15T01:28:50.766Z,144.43
2018-05-15T01:31:18.990Z,127.82
2018-05-15T01:33:46.493Z,128.10
2018-05-15T01:36:13.952Z,132.55
2018-05-15T01:38:42.223Z,113.32
2018-05-15T01:41:09.780Z,103.18
2018-05-15T01:43:37.239Z,111.03
2018-05-15T01:46:06.339Z,109.07
2018-05-15T01:48:33.852Z,111.47
2018-05-15T01:51:01.350Z,113.45
2018-05-15T01:53:28.813Z,105.57
2018-05-15T01:55:56.299Z,96.32
2018-05-15T01:58:23.788Z,104.70
2018-05-15T02:00:51.260Z,111.68
2018-05-15T02:03:18.732Z,100.60
2018-05-15T02:05:46.208Z,99.65
2018-05-15T02:08:13.683Z,106.57
2018-05-15T02:10:41.946Z,130.20
2018-05-15T02:13:10.190Z,99.40
2018-05-15T02:15:37.667Z,98.80
2018-05-15T02:18:05.152Z,119.07
2018-05-15T02:20:33.394Z,106.60
2018-05-15T02:23:00.887Z,89.72
2018-05-15T02:25:29.138Z,105.35
2018-05-15T02:27:56.618Z,110.30
2018-05-15T02:30:24.905Z,117.28
2018-05-15T02:32:52.347Z,98.15
2018-05-15T02:35:19.805Z,91.72
2018-05-15T02:37:48.047Z,105.40
2018-05-15T02:40:15.621Z,89.65
2018-05-15T02:42:43.087Z,85.07
2018-05-15T02:45:10.662Z,83.25
2018-05-15T02:47:38.121Z,81.15
2018-05-15T02:50:06.378Z,76.18
2018-05-15T02:52:33.854Z,74.10
2018-05-15T02:55:02.096Z,70.65
2018-05-15T02:57:29.576Z,64.82
2018-05-15T02:59:57.241Z,63.13
2018-05-15T03:02:24.707Z,62.58
2018-05-15T03:04:52.956Z,76.53
2018-05-15T03:07:20.426Z,65.37
2018-05-15T03:09:47.892Z,63.40
2018-05-15T03:12:17.121Z,66.30
2018-05-15T03:14:44.576Z,72.78
2018-05-15T03:17:12.617Z,62.30
2018-05-15T03:19:40.110Z,68.32
2018-05-15T03:22:08.347Z,64.78
2018-05-15T03:24:35.803Z,58.22
2018-05-15T03:27:03.367Z,64.72
2018-05-15T03:29:32.322Z,64.65
2018-05-15T03:31:59.810Z,60.75
2018-05-15T03:34:27.390Z,66.93
2018-05-15T03:36:54.939Z,68.78
2018-05-15T03:39:25.928Z,68.05
2018-05-15T03:41:53.387Z,66.50
2018-05-15T03:44:20.902Z,61.37
2018-05-15T03:46:48.378Z,57.85
2018-05-15T03:49:16.638Z,68.20
2018-05-15T03:51:44.106Z,59.83
2018-05-15T03:54:11.645Z,55.78
2018-05-15T03:56:39.107Z,51.50
2018-05-15T03:59:06.630Z,62.33
2018-05-15T04:01:45.915Z,56.40
2018-05-15T04:04:25.293Z,51.50
2018-05-15T04:07:05.455Z,56.40
2018-05-15T04:09:32.932Z,53.35
2018-05-15T04:12:00.482Z,67.97
2018-05-15T04:14:27.953Z,60.30
2018-05-15T04:16:55.496Z,69.05
2018-05-15T04:19:22.960Z,71.30
2018-05-15T04:21:50.430Z,65.03
2018-05-15T04:24:17.936Z,63.55
2018-05-15T04:26:46.189Z,56.80
2018-05-15T04:29:13.656Z,67.20
2018-05-15T04:31:41.145Z,60.38
2018-05-15T04:34:08.621Z,67.62
2018-05-15T04:36:36.109Z,60.47
2018-05-15T04:39:03.598Z,56.65
2018-05-15T04:41:31.859Z,54.95
2018-05-15T04:43:59.394Z,52.03
2018-05-15T04:46:27.574Z,61.08
2018-05-15T04:48:55.076Z,64.65
2018-05-15T04:51:23.322Z,56.20
2018-05-15T04:53:50.790Z,57.58
2018-05-15T04:56:18.291Z,56.53
2018-05-15T04:58:45.749Z,61.10
2018-05-15T05:01:13.260Z,56.53
2018-05-15T05:03:40.729Z,55.50
2018-05-15T05:06:08.241Z,51.00
2018-05-15T05:08:35.702Z,51.00
2018-05-15T05:11:03.159Z,53.05
2018-05-15T05:13:30.711Z,51.17
2018-05-15T05:15:58.274Z,46.80
2018-05-15T05:18:25.792Z,51.80
2018-05-15T05:20:53.248Z,45.63
2018-05-15T05:23:21.505Z,44.92
2018-05-15T05:25:48.964Z,44.42
2018-05-15T05:28:16.444Z,46.72
2018-05-15T05:30:44.696Z,49.25
2018-05-15T05:33:12.275Z,45.42
2018-05-15T05:35:39.818Z,46.47
2018-05-15T05:38:07.307Z,46.55
2018-05-15T05:40:34.796Z,43.85
2018-05-15T05:43:02.399Z,43.33
2018-05-15T05:45:29.944Z,40.67
2018-05-15T05:47:57.403Z,42.83
2018-05-15T05:50:24.891Z,41.10
2018-05-15T05:52:52.383Z,40.10
2018-05-15T05:55:19.898Z,44.85
2018-05-15T05:57:47.377Z,44.42
2018-05-15T06:00:15.635Z,42.92
2018-05-15T06:02:43.094Z,43.05
2018-05-15T06:05:10.580Z,44.70
2018-05-15T06:07:38.116Z,42.08
2018-05-15T06:10:06.381Z,38.50
2018-05-15T06:12:33.844Z,36.67
2018-05-15T06:15:01.319Z,39.60
2018-05-15T06:17:29.569Z,34.53
2018-05-15T06:19:57.142Z,34.75
2018-05-15T06:22:24.603Z,34.35
2018-05-15T06:24:52.098Z,32.75
2018-05-15T06:27:19.572Z,29.98
2018-05-15T06:29:47.028Z,30.90
2018-05-15T06:32:14.520Z,29.40
2018-05-15T06:34:41.965Z,30.15
2018-05-15T06:37:09.456Z,39.17
2018-05-15T06:39:36.918Z,30.57
2018-05-15T06:42:05.275Z,35.90
2018-05-15T06:44:32.752Z,30.10
2018-05-15T06:47:00.239Z,34.50
2018-05-15T06:49:27.695Z,28.93
2018-05-15T06:51:55.220Z,29.23
2018-05-15T06:54:22.770Z,35.13
2018-05-15T06:56:50.330Z,29.23
2018-05-15T06:59:17.885Z,29.70
2018-05-15T07:01:45.493Z,31.00
2018-05-15T07:04:12.854Z,30.50
2018-05-15T07:06:40.347Z,31.43
2018-05-15T07:09:07.822Z,29.67
2018-05-15T07:11:36.387Z,32.10
2018-05-15T07:14:03.899Z,35.20
2018-05-15T07:16:31.319Z,31.37
2018-05-15T07:18:58.807Z,37.03
2018-05-15T07:21:27.054Z,42.60
2018-05-15T07:23:54.619Z,31.33
2018-05-15T07:26:22.079Z,28.98
2018-05-15T07:28:49.536Z,29.45
2018-05-15T07:31:17.107Z,30.42
2018-05-15T07:33:44.655Z,34.13
2018-05-15T07:36:12.115Z,31.55
2018-05-15T07:38:39.571Z,33.65
2018-05-15T07:41:07.134Z,28.98
2018-05-15T07:43:34.685Z,31.65
2018-05-15T07:46:02.195Z,32.40
2018-05-15T07:48:29.663Z,36.35
2018-05-15T07:50:58.040Z,37.13
2018-05-15T07:53:25.518Z,28.05
2018-05-15T07:55:52.998Z,28.33
2018-05-15T07:58:20.488Z,29.50
2018-05-15T08:00:48.743Z,30.48
2018-05-15T08:03:16.225Z,30.00
2018-05-15T08:05:44.467Z,29.52
2018-05-15T08:08:11.967Z,29.97
2018-05-15T08:10:39.440Z,28.20
2018-05-15T08:13:06.922Z,25.70
2018-05-15T08:15:34.396Z,25.47
2018-05-15T08:18:01.863Z,26.27
2018-05-15T08:20:29.329Z,22.83
2018-05-15T08:22:56.810Z,23.27
2018-05-15T08:25:25.031Z,21.80
2018-05-15T08:27:52.510Z,20.30
2018-05-15T08:30:19.958Z,20.60
2018-05-15T08:32:47.534Z,19.67
2018-05-15T08:35:14.999Z,18.73
2018-05-15T08:37:42.536Z,17.73
2018-05-15T08:40:10.006Z,16.47
2018-05-15T08:42:37.583Z,16.47
2018-05-15T08:45:05.055Z,14.90
2018-05-15T08:47:33.316Z,12.60
2018-05-15T08:50:00.771Z,11.57
2018-05-15T08:52:28.328Z,10.77
2018-05-15T08:54:55.779Z,11.83
2018-05-15T08:57:23.255Z,12.00
2018-05-15T08:59:50.739Z,12.83
2018-05-15T09:02:18.960Z,12.03
2018-05-15T09:04:46.429Z,11.13
2018-05-15T09:07:14.922Z,11.77
2018-05-15T09:09:42.375Z,11.60
2018-05-15T09:12:09.867Z,11.27
2018-05-15T09:14:38.092Z,11.40
2018-05-15T09:17:05.557Z,11.73
2018-05-15T09:19:33.044Z,10.87
2018-05-15T09:22:00.542Z,11.60
2018-05-15T09:24:28.045Z,11.60
2018-05-15T09:26:55.501Z,13.07
2018-05-15T09:29:23.930Z,10.50
2018-05-15T09:31:51.295Z,10.10
2018-05-15T09:34:18.767Z,9.37
2018-05-15T09:36:46.218Z,9.10
2018-05-15T09:39:13.695Z,10.43
2018-05-15T09:41:41.138Z,10.13
2018-05-15T09:44:08.619Z,9.93
2018-05-15T09:46:36.073Z,9.13
2018-05-15T09:49:03.548Z,9.97
2018-05-15T09:51:31.027Z,10.20
2018-05-15T09:53:59.276Z,9.20
2018-05-15T09:56:26.776Z,9.30
2018-05-15T09:58:55.011Z,14.30
2018-05-15T10:01:22.483Z,10.10
2018-05-15T10:03:50.044Z,10.60
2018-05-15T10:06:17.526Z,10.57
2018-05-15T10:08:45.762Z,11.40
2018-05-15T10:11:13.227Z,8.60
2018-05-15T10:13:40.683Z,10.30
2018-05-15T10:16:08.180Z,11.90
2018-05-15T10:18:36.398Z,11.70
2018-05-15T10:21:03.918Z,11.63
2018-05-15T10:23:32.146Z,11.10
2018-05-15T10:26:00.435Z,11.73
2018-05-15T10:28:27.902Z,10.87
2018-05-15T10:30:55.508Z,9.30
2018-05-15T10:33:22.984Z,8.87
2018-05-15T10:35:50.443Z,10.17
2018-05-15T10:38:17.905Z,10.50
2018-05-15T10:40:45.362Z,12.20
2018-05-15T10:43:12.842Z,11.30
2018-05-15T10:45:40.395Z,9.77
2018-05-15T10:48:07.864Z,9.60
2018-05-15T10:50:35.298Z,8.67
2018-05-15T10:53:02.761Z,7.63
2018-05-15T10:55:30.291Z,8.70
2018-05-15T10:57:57.749Z,7.70
2018-05-15T11:00:25.214Z,7.70
2018-05-15T11:02:52.694Z,6.73
2018-05-15T11:05:20.170Z,8.70
2018-05-15T11:07:47.626Z,8.13
2018-05-15T11:10:15.184Z,16.57
2018-05-15T11:12:42.741Z,11.87
2018-05-15T11:15:10.271Z,9.60
2018-05-15T11:17:37.758Z,8.60
2018-05-15T11:23:23.364Z,7.90
2018-05-15T11:25:50.832Z,6.87
2018-05-15T11:28:18.291Z,7.00
2018-05-15T11:30:45.753Z,6.63
2018-05-15T11:33:13.987Z,8.60
2018-05-15T11:35:41.547Z,6.10
2018-05-15T11:38:08.918Z,6.73
2018-05-15T11:40:36.390Z,8.37
2018-05-15T11:43:03.854Z,9.63
2018-05-15T11:45:31.348Z,9.20
2018-05-15T11:47:59.152Z,9.07
2018-05-15T11:50:27.079Z,8.87
2018-05-15T11:52:54.666Z,9.40
2018-05-15T11:55:21.319Z,9.50
2018-05-15T11:57:48.880Z,10.10
2018-05-15T12:00:16.267Z,10.67
2018-05-15T12:02:43.782Z,11.67
2018-05-15T12:05:11.240Z,12.30
2018-05-15T12:07:38.714Z,17.80
2018-05-15T12:10:06.195Z,15.67
2018-05-15T12:12:33.683Z,18.43
2018-05-15T12:15:02.012Z,14.83
2018-05-15T12:17:29.405Z,14.63
2018-05-15T12:19:57.669Z,14.27
2018-05-15T12:22:26.680Z,10.20
2018-05-15T12:24:54.925Z,8.90
2018-05-15T12:27:22.380Z,8.53
2018-05-15T12:29:49.896Z,7.80
2018-05-15T12:32:18.095Z,6.83
2018-05-15T12:34:45.562Z,5.57
2018-05-15T12:37:13.048Z,4.80
2018-05-15T12:39:40.561Z,6.07
2018-05-15T12:42:08.151Z,5.80
2018-05-15T12:44:35.584Z,7.87
2018-05-15T12:47:03.042Z,6.00
2018-05-15T12:49:30.515Z,5.87
2018-05-15T12:51:57.987Z,6.80
2018-05-15T12:54:25.474Z,6.67
2018-05-15T12:56:53.748Z,7.20
2018-05-15T12:59:21.988Z,7.97
2018-05-15T13:01:49.584Z,8.40
2018-05-15T13:04:16.997Z,8.10
2018-05-15T13:06:44.495Z,10.33
2018-05-15T13:09:11.972Z,8.00
2018-05-15T13:11:39.461Z,7.60
2018-05-15T13:14:07.016Z,8.87
2018-05-15T13:16:34.521Z,7.93
2018-05-15T13:19:01.971Z,8.17
2018-05-15T13:21:29.434Z,8.20
2018-05-15T13:23:56.919Z,9.00
2018-05-15T13:26:25.156Z,8.57
2018-05-15T13:28:52.613Z,8.43
2018-05-15T13:31:20.081Z,7.90
2018-05-15T13:33:47.644Z,7.60
2018-05-15T13:36:15.077Z,9.27
2018-05-15T13:38:42.542Z,8.67
2018-05-15T13:41:10.058Z,8.50
2018-05-15T13:43:37.566Z,8.83
2018-05-15T13:46:05.038Z,8.10
2018-05-15T13:48:32.590Z,7.33
2018-05-15T13:51:00.063Z,6.73
2018-05-15T13:53:27.597Z,5.97
2018-05-15T13:55:55.228Z,4.40
2018-05-15T13:58:22.714Z,4.77
2018-05-15T14:00:50.259Z,3.67
2018-05-15T14:03:17.739Z,3.73
2018-05-15T14:05:45.190Z,4.23
2018-05-15T14:08:12.677Z,4.13
2018-05-15T14:10:41.646Z,4.73
2018-05-15T14:13:09.307Z,4.10
2018-05-15T14:15:36.779Z,4.13
2018-05-15T14:18:04.232Z,3.00
2018-05-15T14:20:31.695Z,2.63
2018-05-15T14:22:59.137Z,3.67
2018-05-15T14:25:26.623Z,4.20
2018-05-15T14:27:54.315Z,3.53
2018-05-15T14:30:21.770Z,3.90
2018-05-15T14:32:49.355Z,6.53
2018-05-15T14:35:16.800Z,3.07
2018-05-15T14:37:44.282Z,3.40
2018-05-15T14:40:11.750Z,5.60
2018-05-15T14:42:51.147Z,5.83
2018-05-15T14:45:18.597Z,2.93
2018-05-15T14:47:46.925Z,3.33
2018-05-15T14:50:14.380Z,3.53
2018-05-15T14:52:41.842Z,4.23
2018-05-15T14:55:09.328Z,3.07
2018-05-15T14:57:36.773Z,4.30
2018-05-15T15:00:04.264Z,3.90
2018-05-15T15:02:32.488Z,4.17
2018-05-15T15:04:59.962Z,3.70
2018-05-15T15:07:27.486Z,3.87
2018-05-15T15:09:54.928Z,2.10
2018-05-15T15:12:22.434Z,2.93
2018-05-15T15:14:49.896Z,2.97
2018-05-15T15:17:17.426Z,2.43
2018-05-15T15:19:44.868Z,2.90
2018-05-15T15:22:12.379Z,2.30
2018-05-15T15:24:39.827Z,3.27
2018-05-15T15:27:07.307Z,2.63
2018-05-15T15:29:34.817Z,4.27
2018-05-15T15:32:03.014Z,5.73
2018-05-15T15:34:30.489Z,5.93
2018-05-15T15:36:57.952Z,5.10
2018-05-15T15:39:25.436Z,2.67
2018-05-15T15:41:54.322Z,3.23
2018-05-15T15:44:22.544Z,4.00
2018-05-15T15:46:50.091Z,2.27
2018-05-15T15:49:17.576Z,2.90
2018-05-15T15:51:45.018Z,3.73
2018-05-15T15:54:12.511Z,4.37
2018-05-15T15:56:39.965Z,3.73
2018-05-15T15:59:08.178Z,2.00
2018-05-15T16:01:35.664Z,3.13
2018-05-15T16:04:03.188Z,2.80
2018-05-15T16:06:30.601Z,5.23
2018-05-15T16:08:58.073Z,4.33
2018-05-15T16:11:25.575Z,3.17
2018-05-15T16:13:53.079Z,3.23
2018-05-15T16:16:20.646Z,2.93
2018-05-15T16:18:48.216Z,5.27
2018-05-15T16:21:15.675Z,3.13
2018-05-15T16:23:43.285Z,4.60
2018-05-15T16:26:10.836Z,3.53
2018-05-15T16:28:38.373Z,3.90
2018-05-15T16:31:05.780Z,5.50
2018-05-15T16:33:33.255Z,3.90
2018-05-15T16:36:00.793Z,5.80
2018-05-15T16:38:28.346Z,3.30
2018-05-15T16:40:56.524Z,4.67
2018-05-15T16:43:23.988Z,4.70
2018-05-15T16:45:51.584Z,3.73
2018-05-15T16:48:19.279Z,3.90
2018-05-15T16:50:46.773Z,8.93
2018-05-15T16:53:14.367Z,4.83
2018-05-15T16:55:41.879Z,3.30
2018-05-15T16:58:09.359Z,5.13
2018-05-15T17:00:36.875Z,6.40
2018-05-15T17:03:05.127Z,5.30
2018-05-15T17:05:32.592Z,4.50
2018-05-15T17:08:00.971Z,3.20
2018-05-15T17:10:28.415Z,3.57
2018-05-15T17:12:55.899Z,4.23
2018-05-15T17:15:23.372Z,3.93
2018-05-15T17:17:50.910Z,5.90
2018-05-15T17:20:18.402Z,3.33
2018-05-15T17:22:45.980Z,3.60
2018-05-15T17:25:13.572Z,3.37
2018-05-15T17:27:41.009Z,3.13
2018-05-15T17:30:08.609Z,2.67
2018-05-15T17:32:36.055Z,3.70
2018-05-15T17:35:06.024Z,2.73
2018-05-15T17:37:34.945Z,2.73
2018-05-15T17:40:02.469Z,3.60
2018-05-15T17:42:29.967Z,5.20
2018-05-15T17:44:57.416Z,3.33
2018-05-15T17:47:24.983Z,4.10
2018-05-15T17:49:52.463Z,3.90
2018-05-15T17:52:20.710Z,4.53
2018-05-15T17:54:48.187Z,4.50
2018-05-15T17:57:15.913Z,5.53
2018-05-15T17:59:44.651Z,3.50
2018-05-15T18:02:12.893Z,4.00
2018-05-15T18:04:40.359Z,3.53
2018-05-15T18:07:07.847Z,10.83
2018-05-15T18:09:35.415Z,5.57
2018-05-15T18:12:03.010Z,4.23
2018-05-15T18:14:30.612Z,5.50
2018-05-15T18:16:58.258Z,6.37
2018-05-15T18:19:25.807Z,3.47
2018-05-15T18:21:53.269Z,4.20
2018-05-15T18:24:20.760Z,3.30
2018-05-15T18:26:48.350Z,3.43
2018-05-15T18:29:16.558Z,3.03
2018-05-15T18:31:44.133Z,3.50
2018-05-15T18:34:11.604Z,3.80
2018-05-15T18:36:39.067Z,3.87
2018-05-15T18:39:07.180Z,3.97
2018-05-15T18:41:34.759Z,3.60
2018-05-15T18:44:02.240Z,3.00
2018-05-15T18:46:29.735Z,3.20
2018-05-15T18:48:57.992Z,4.20
2018-05-15T18:51:25.580Z,4.07
2018-05-15T18:53:53.798Z,6.20
2018-05-15T18:56:21.352Z,2.63
2018-05-15T18:58:48.870Z,2.83
2018-05-15T19:01:17.114Z,3.80
2018-05-15T19:03:44.590Z,3.00
2018-05-15T19:06:12.050Z,3.53
2018-05-15T19:08:39.531Z,3.13
2018-05-15T19:11:07.755Z,3.20
2018-05-15T19:13:35.340Z,3.50
2018-05-15T19:16:02.788Z,3.60
2018-05-15T19:18:30.260Z,4.03
2018-05-15T19:20:57.755Z,3.80
2018-05-15T19:23:25.235Z,4.10
2018-05-15T19:25:52.871Z,4.73
2018-05-15T19:28:20.390Z,3.37
2018-05-15T19:30:47.847Z,3.30
2018-05-15T19:33:17.385Z,2.93
2018-05-15T19:35:44.833Z,5.53
2018-05-15T19:38:12.379Z,4.03
2018-05-15T19:40:41.742Z,3.53
2018-05-15T19:43:09.221Z,3.23
2018-05-15T19:45:36.764Z,3.33
2018-05-15T19:48:04.302Z,3.50
2018-05-15T19:50:31.869Z,4.03
2018-05-15T19:52:59.324Z,3.63
2018-05-15T19:55:26.802Z,6.07
2018-05-15T19:57:54.246Z,3.73
2018-05-15T20:00:21.732Z,3.47
2018-05-15T20:02:49.244Z,3.20
2018-05-15T20:05:16.722Z,3.50
2018-05-15T20:07:44.198Z,3.57
2018-05-15T20:10:11.686Z,2.90
2018-05-15T20:12:39.167Z,2.70
2018-05-15T20:15:07.440Z,4.47
2018-05-15T20:17:35.647Z,2.87
2018-05-15T20:20:03.104Z,4.43
2018-05-15T20:22:30.591Z,3.60
2018-05-15T20:24:58.051Z,2.97
2018-05-15T20:27:25.519Z,3.50
2018-05-15T20:29:53.758Z,7.27
2018-05-15T20:32:21.230Z,3.60
2018-05-15T20:34:48.745Z,3.20
2018-05-15T20:37:16.175Z,3.47
2018-05-15T20:39:43.659Z,4.77
2018-05-15T20:42:11.289Z,5.00
2018-05-15T20:44:39.433Z,4.60
2018-05-15T20:47:06.918Z,5.65
2018-05-15T20:49:35.148Z,5.33
2018-05-15T20:52:02.622Z,4.63
2018-05-15T20:54:30.080Z,5.47
2018-05-15T20:56:58.051Z,7.17
2018-05-15T20:59:25.571Z,4.90
2018-05-15T21:01:53.930Z,4.43
2018-05-15T21:04:21.409Z,5.62
2018-05-15T21:06:49.671Z,5.80
2018-05-15T21:09:17.245Z,6.40
2018-05-15T21:11:45.506Z,6.82
2018-05-15T21:14:13.840Z,6.83
2018-05-15T21:16:41.339Z,6.67
2018-05-15T21:19:08.796Z,5.10
2018-05-15T21:21:36.270Z,7.50
2018-05-15T21:24:04.523Z,6.13
2018-05-15T21:26:32.776Z,6.37
2018-05-15T21:29:00.268Z,6.70
2018-05-15T21:31:27.731Z,7.40
2018-05-15T21:33:56.022Z,15.15
2018-05-15T21:36:24.253Z,7.60
2018-05-15T21:38:51.726Z,8.50
2018-05-15T21:41:19.195Z,8.00
2018-05-15T21:43:46.699Z,7.68
2018-05-15T21:46:14.164Z,8.48
2018-05-15T21:48:41.647Z,9.23
2018-05-15T21:51:09.155Z,8.07
2018-05-15T21:53:36.683Z,8.20
2018-05-15T21:56:04.246Z,7.97
2018-05-15T21:58:31.741Z,8.02
2018-05-15T22:00:59.963Z,8.85
2018-05-15T22:03:27.433Z,9.88
2018-05-15T22:05:55.005Z,9.13
2018-05-15T22:08:22.581Z,9.33
2018-05-15T22:10:50.818Z,11.57
2018-05-15T22:13:30.144Z,10.02
2018-05-15T22:16:09.619Z,10.55
2018-05-15T22:18:49.047Z,10.07
2018-05-15T22:21:28.499Z,10.52
2018-05-15T22:23:55.537Z,13.10
2018-05-15T22:26:22.999Z,10.60
2018-05-15T22:28:50.461Z,11.35
2018-05-15T22:31:18.719Z,11.70
2018-05-15T22:33:46.193Z,11.00
2018-05-15T22:36:13.855Z,12.25
2018-05-15T22:38:41.334Z,11.60
2018-05-15T22:41:09.577Z,11.00
2018-05-15T22:43:37.066Z,12.93
2018-05-15T22:46:05.319Z,11.15
2018-05-15T22:48:32.796Z,11.98
2018-05-15T22:51:01.128Z,13.77
2018-05-15T22:53:28.531Z,13.65
2018-05-15T22:55:56.779Z,12.27
2018-05-15T22:58:24.253Z,13.57
2018-05-15T23:00:51.729Z,12.50
2018-05-15T23:03:20.083Z,12.37
2018-05-15T23:05:47.552Z,14.75
2018-05-15T23:08:15.038Z,16.08
2018-05-15T23:10:43.278Z,13.37
2018-05-15T23:13:10.752Z,16.30
2018-05-15T23:15:38.245Z,15.23
2018-05-15T23:18:05.719Z,17.55
2018-05-15T23:20:33.186Z,16.20
2018-05-15T23:23:00.666Z,16.00
2018-05-15T23:25:28.226Z,15.18
2018-05-15T23:27:57.219Z,16.55
2018-05-15T23:30:24.670Z,14.90
2018-05-15T23:32:52.153Z,15.32
2018-05-15T23:35:20.378Z,16.12
2018-05-15T23:37:47.895Z,16.33
2018-05-15T23:40:16.150Z,16.17
2018-05-15T23:42:43.618Z,15.60
2018-05-15T23:45:11.102Z,16.45
2018-05-15T23:47:38.557Z,17.85
2018-05-15T23:50:06.038Z,19.27
2018-05-15T23:52:33.514Z,17.30
2018-05-15T23:55:01.000Z,17.33
2018-05-15T23:57:28.462Z,16.37
2018-05-15T23:59:55.933Z,16.67
